HAZ1601 ZUUU-ZUXC
Flight info
| Callsign | HAZ1601 |
|---|---|
| Flight time | 0h 46m |
| Altitude | 29100 |
| Route | LUVEN9W LUVEN G212 BOPTU BOP01A |
| Aircraft | A321/M-SDE3FGHIRWY/LB1 |
Departure
| Time | 2026-05-07 07:24 |
|---|---|
| Airport | Chengdu Shuangliu International Airport (ZUUU) |
Arrival
| Time | 2026-05-07 08:11 |
|---|---|
| Airport | Xichang Qingshan Airport (ZUXC) |
| Time | Latitude | Longitude | Altitude | Speed | Heading |
|---|---|---|---|---|---|
| 2026-05-07 07:11 | 30.57017 | 103.94869 | 1638 ft | 0 kts | 111° |
| 2026-05-07 07:16 | 30.57019 | 103.94863 | 1638 ft | 2 kts | 111° |
| 2026-05-07 07:16 | 30.57024 | 103.94846 | 1638 ft | 2 kts | 111° |
| 2026-05-07 07:16 | 30.57030 | 103.94830 | 1638 ft | 2 kts | 111° |
| 2026-05-07 07:17 | 30.57035 | 103.94814 | 1638 ft | 2 kts | 116° |
| 2026-05-07 07:17 | 30.57045 | 103.94801 | 1638 ft | 2 kts | 143° |
| 2026-05-07 07:17 | 30.57058 | 103.94792 | 1638 ft | 2 kts | 165° |
| 2026-05-07 07:17 | 30.57073 | 103.94791 | 1638 ft | 2 kts | 187° |
| 2026-05-07 07:18 | 30.57082 | 103.94793 | 1638 ft | 1 kts | 200° |
| 2026-05-07 07:18 | 30.57088 | 103.94796 | 1638 ft | 0 kts | 201° |
| 2026-05-07 07:19 | 30.57079 | 103.94791 | 1638 ft | 3 kts | 202° |
| 2026-05-07 07:20 | 30.57046 | 103.94775 | 1638 ft | 5 kts | 203° |
| 2026-05-07 07:20 | 30.57002 | 103.94752 | 1638 ft | 8 kts | 205° |
| 2026-05-07 07:20 | 30.56942 | 103.94710 | 1638 ft | 11 kts | 221° |
| 2026-05-07 07:20 | 30.56858 | 103.94659 | 1638 ft | 15 kts | 199° |
| 2026-05-07 07:21 | 30.56840 | 103.94558 | 1638 ft | 15 kts | 291° |
| 2026-05-07 07:21 | 30.56845 | 103.94448 | 1638 ft | 14 kts | 223° |
| 2026-05-07 07:21 | 30.56750 | 103.94401 | 1638 ft | 14 kts | 201° |
| 2026-05-07 07:21 | 30.56653 | 103.94357 | 1638 ft | 15 kts | 202° |
| 2026-05-07 07:22 | 30.56554 | 103.94310 | 1638 ft | 15 kts | 202° |
| 2026-05-07 07:22 | 30.56453 | 103.94260 | 1638 ft | 15 kts | 201° |
| 2026-05-07 07:22 | 30.56351 | 103.94217 | 1638 ft | 13 kts | 201° |
| 2026-05-07 07:22 | 30.56299 | 103.94164 | 1638 ft | 10 kts | 274° |
| 2026-05-07 07:23 | 30.56325 | 103.94076 | 1638 ft | 11 kts | 290° |
| 2026-05-07 07:23 | 30.56381 | 103.94019 | 1638 ft | 11 kts | 6° |
| 2026-05-07 07:23 | 30.56472 | 103.94059 | 1638 ft | 23 kts | 21° |
| 2026-05-07 07:23 | 30.56854 | 103.94239 | 1638 ft | 93 kts | 22° |
| 2026-05-07 07:24 | 30.57666 | 103.94617 | 1639 ft | 152 kts | 21° |
| 2026-05-07 07:24 | 30.58791 | 103.95126 | 1807 ft | 184 kts | 22° |
| 2026-05-07 07:24 | 30.59956 | 103.95687 | 2534 ft | 180 kts | 24° |
| 2026-05-07 07:24 | 30.61079 | 103.96206 | 3349 ft | 172 kts | 25° |
| 2026-05-07 07:25 | 30.63383 | 103.97282 | 4029 ft | 190 kts | 24° |
| 2026-05-07 07:25 | 30.64645 | 103.97929 | 4283 ft | 203 kts | 34° |
| 2026-05-07 07:25 | 30.65498 | 103.99232 | 4510 ft | 214 kts | 75° |
| 2026-05-07 07:26 | 30.65346 | 104.00987 | 4687 ft | 237 kts | 116° |
| 2026-05-07 07:26 | 30.64142 | 104.02372 | 4970 ft | 260 kts | 152° |
| 2026-05-07 07:26 | 30.62299 | 104.02809 | 5329 ft | 279 kts | 176° |
| 2026-05-07 07:26 | 30.60343 | 104.02773 | 5925 ft | 284 kts | 180° |
| 2026-05-07 07:27 | 30.58365 | 104.02683 | 6592 ft | 287 kts | 180° |
| 2026-05-07 07:27 | 30.56371 | 104.02625 | 7290 ft | 289 kts | 179° |
| 2026-05-07 07:27 | 30.54354 | 104.02602 | 8002 ft | 292 kts | 178° |
| 2026-05-07 07:27 | 30.52328 | 104.02605 | 8727 ft | 294 kts | 178° |
| 2026-05-07 07:28 | 30.50293 | 104.02623 | 9453 ft | 296 kts | 178° |
| 2026-05-07 07:28 | 30.48901 | 104.02640 | 9935 ft | 298 kts | 178° |
| 2026-05-07 07:28 | 30.46849 | 104.02669 | 10559 ft | 304 kts | 178° |
| 2026-05-07 07:28 | 30.44665 | 104.02703 | 10904 ft | 320 kts | 178° |
| 2026-05-07 07:29 | 30.41589 | 104.02750 | 11297 ft | 342 kts | 178° |
| 2026-05-07 07:29 | 30.39146 | 104.02787 | 11574 ft | 358 kts | 178° |
| 2026-05-07 07:29 | 30.36613 | 104.02827 | 11838 ft | 373 kts | 178° |
| 2026-05-07 07:29 | 30.34003 | 104.02867 | 12286 ft | 381 kts | 178° |
| 2026-05-07 07:30 | 30.31336 | 104.02908 | 12922 ft | 383 kts | 179° |
| 2026-05-07 07:30 | 30.28711 | 104.02950 | 13541 ft | 384 kts | 179° |
| 2026-05-07 07:30 | 30.26003 | 104.02998 | 14127 ft | 386 kts | 179° |
| 2026-05-07 07:30 | 30.23343 | 104.03091 | 14675 ft | 388 kts | 179° |
| 2026-05-07 07:31 | 30.20614 | 104.03203 | 15235 ft | 390 kts | 179° |
| 2026-05-07 07:31 | 30.17898 | 104.03314 | 15765 ft | 392 kts | 180° |
| 2026-05-07 07:31 | 30.16071 | 104.03387 | 16107 ft | 393 kts | 180° |
| 2026-05-07 07:31 | 30.12457 | 104.03529 | 16758 ft | 395 kts | 180° |
| 2026-05-07 07:32 | 30.09700 | 104.03635 | 17232 ft | 396 kts | 181° |
| 2026-05-07 07:32 | 30.06928 | 104.03741 | 17683 ft | 397 kts | 181° |
| 2026-05-07 07:32 | 30.04177 | 104.03841 | 18081 ft | 400 kts | 181° |
| 2026-05-07 07:32 | 30.01398 | 104.03944 | 18466 ft | 403 kts | 181° |
| 2026-05-07 07:33 | 29.98555 | 104.04051 | 18866 ft | 405 kts | 181° |
| 2026-05-07 07:33 | 29.95733 | 104.04158 | 19241 ft | 407 kts | 181° |
| 2026-05-07 07:33 | 29.92882 | 104.04265 | 19607 ft | 410 kts | 181° |
| 2026-05-07 07:33 | 29.90051 | 104.04370 | 19964 ft | 412 kts | 181° |
| 2026-05-07 07:34 | 29.87138 | 104.04481 | 20319 ft | 415 kts | 181° |
| 2026-05-07 07:34 | 29.84274 | 104.04590 | 20654 ft | 417 kts | 181° |
| 2026-05-07 07:34 | 29.81352 | 104.04699 | 20994 ft | 420 kts | 182° |
| 2026-05-07 07:34 | 29.78439 | 104.04803 | 21329 ft | 422 kts | 182° |
| 2026-05-07 07:35 | 29.75467 | 104.04778 | 21658 ft | 422 kts | 185° |
| 2026-05-07 07:35 | 29.72551 | 104.04667 | 21963 ft | 425 kts | 186° |
| 2026-05-07 07:35 | 29.69563 | 104.04552 | 22272 ft | 427 kts | 186° |
| 2026-05-07 07:35 | 29.66606 | 104.04436 | 22593 ft | 429 kts | 186° |
| 2026-05-07 07:36 | 29.63620 | 104.04319 | 22917 ft | 431 kts | 186° |
| 2026-05-07 07:36 | 29.60609 | 104.04202 | 23248 ft | 433 kts | 186° |
| 2026-05-07 07:36 | 29.57580 | 104.04083 | 23579 ft | 434 kts | 186° |
| 2026-05-07 07:36 | 29.54571 | 104.03964 | 23887 ft | 436 kts | 186° |
| 2026-05-07 07:37 | 29.51504 | 104.03844 | 24203 ft | 438 kts | 186° |
| 2026-05-07 07:37 | 29.48476 | 104.03725 | 24513 ft | 439 kts | 186° |
| 2026-05-07 07:37 | 29.45438 | 104.03606 | 24834 ft | 440 kts | 187° |
| 2026-05-07 07:37 | 29.42340 | 104.03485 | 25129 ft | 442 kts | 187° |
| 2026-05-07 07:38 | 29.39267 | 104.03378 | 25403 ft | 445 kts | 186° |
| 2026-05-07 07:38 | 29.36177 | 104.03396 | 25670 ft | 448 kts | 184° |
| 2026-05-07 07:38 | 29.33013 | 104.03439 | 25956 ft | 450 kts | 184° |
| 2026-05-07 07:38 | 29.29884 | 104.03484 | 26258 ft | 451 kts | 185° |
| 2026-05-07 07:39 | 29.26745 | 104.03528 | 26550 ft | 452 kts | 185° |
| 2026-05-07 07:39 | 29.24669 | 104.03557 | 26714 ft | 453 kts | 184° |
| 2026-05-07 07:39 | 29.20417 | 104.03619 | 27115 ft | 454 kts | 185° |
| 2026-05-07 07:39 | 29.17288 | 104.03664 | 27502 ft | 453 kts | 185° |
| 2026-05-07 07:40 | 29.14130 | 104.03709 | 27830 ft | 453 kts | 185° |
| 2026-05-07 07:40 | 29.10969 | 104.03753 | 28116 ft | 454 kts | 185° |
| 2026-05-07 07:40 | 29.07839 | 104.03796 | 28393 ft | 455 kts | 185° |
| 2026-05-07 07:40 | 29.04662 | 104.03840 | 28671 ft | 456 kts | 185° |
| 2026-05-07 07:41 | 29.01497 | 104.03882 | 29019 ft | 455 kts | 185° |
| 2026-05-07 07:41 | 28.95129 | 104.03971 | 29113 ft | 458 kts | 185° |
| 2026-05-07 07:42 | 28.88745 | 104.04060 | 29151 ft | 459 kts | 185° |
| 2026-05-07 07:42 | 28.82324 | 104.04149 | 29164 ft | 459 kts | 185° |
| 2026-05-07 07:43 | 28.75946 | 104.04235 | 29196 ft | 459 kts | 185° |
| 2026-05-07 07:43 | 28.69567 | 104.04324 | 29215 ft | 459 kts | 185° |
| 2026-05-07 07:44 | 28.63183 | 104.04082 | 29201 ft | 449 kts | 197° |
| 2026-05-07 07:44 | 28.60287 | 104.02999 | 29216 ft | 439 kts | 210° |
| 2026-05-07 07:44 | 28.57707 | 104.01211 | 29222 ft | 432 kts | 222° |
| 2026-05-07 07:44 | 28.55556 | 103.98825 | 29223 ft | 429 kts | 233° |
| 2026-05-07 07:45 | 28.53932 | 103.95995 | 29232 ft | 430 kts | 244° |
| 2026-05-07 07:45 | 28.51246 | 103.89918 | 29251 ft | 432 kts | 245° |
| 2026-05-07 07:46 | 28.48588 | 103.83838 | 29270 ft | 432 kts | 245° |
| 2026-05-07 07:46 | 28.45920 | 103.77734 | 29271 ft | 431 kts | 245° |
| 2026-05-07 07:47 | 28.43246 | 103.71625 | 29287 ft | 431 kts | 245° |
| 2026-05-07 07:47 | 28.40581 | 103.65546 | 29292 ft | 431 kts | 245° |
| 2026-05-07 07:48 | 28.37912 | 103.59469 | 29326 ft | 430 kts | 245° |
| 2026-05-07 07:48 | 28.35248 | 103.53411 | 29332 ft | 430 kts | 246° |
| 2026-05-07 07:49 | 28.32585 | 103.47367 | 29363 ft | 430 kts | 246° |
| 2026-05-07 07:49 | 28.29915 | 103.41314 | 29373 ft | 429 kts | 246° |
| 2026-05-07 07:50 | 28.27230 | 103.35231 | 29380 ft | 429 kts | 246° |
| 2026-05-07 07:50 | 28.24569 | 103.29221 | 29415 ft | 427 kts | 245° |
| 2026-05-07 07:51 | 28.21893 | 103.23177 | 29279 ft | 427 kts | 245° |
| 2026-05-07 07:51 | 28.20558 | 103.20164 | 29026 ft | 426 kts | 245° |
| 2026-05-07 07:51 | 28.19243 | 103.17200 | 28782 ft | 424 kts | 245° |
| 2026-05-07 07:51 | 28.17921 | 103.14225 | 28534 ft | 422 kts | 245° |
| 2026-05-07 07:52 | 28.16608 | 103.11273 | 28286 ft | 420 kts | 245° |
| 2026-05-07 07:52 | 28.15719 | 103.09276 | 28117 ft | 419 kts | 245° |
| 2026-05-07 07:52 | 28.13986 | 103.05380 | 27785 ft | 417 kts | 245° |
| 2026-05-07 07:52 | 28.12674 | 103.02434 | 27540 ft | 415 kts | 245° |
| 2026-05-07 07:53 | 28.11377 | 102.99524 | 27291 ft | 414 kts | 245° |
| 2026-05-07 07:53 | 28.10082 | 102.96622 | 27044 ft | 412 kts | 245° |
| 2026-05-07 07:53 | 28.08794 | 102.93734 | 26796 ft | 410 kts | 245° |
| 2026-05-07 07:53 | 28.07520 | 102.90884 | 26551 ft | 409 kts | 245° |
| 2026-05-07 07:54 | 28.06245 | 102.88030 | 26305 ft | 407 kts | 245° |
| 2026-05-07 07:54 | 28.04977 | 102.85195 | 26058 ft | 405 kts | 245° |
| 2026-05-07 07:54 | 28.03710 | 102.82363 | 25814 ft | 404 kts | 245° |
| 2026-05-07 07:54 | 28.02441 | 102.79529 | 25569 ft | 402 kts | 245° |
| 2026-05-07 07:55 | 28.01178 | 102.76711 | 25324 ft | 402 kts | 245° |
| 2026-05-07 07:55 | 28.00326 | 102.74812 | 25149 ft | 401 kts | 245° |
| 2026-05-07 07:55 | 27.98665 | 102.71110 | 24722 ft | 398 kts | 245° |
| 2026-05-07 07:55 | 27.97417 | 102.68329 | 24324 ft | 395 kts | 245° |
| 2026-05-07 07:56 | 27.96184 | 102.65588 | 23848 ft | 392 kts | 245° |
| 2026-05-07 07:56 | 27.94951 | 102.62843 | 23360 ft | 389 kts | 245° |
| 2026-05-07 07:56 | 27.94139 | 102.61037 | 23025 ft | 386 kts | 245° |
| 2026-05-07 07:56 | 27.92532 | 102.57463 | 22342 ft | 381 kts | 245° |
| 2026-05-07 07:57 | 27.91343 | 102.54824 | 21837 ft | 377 kts | 245° |
| 2026-05-07 07:57 | 27.90545 | 102.53052 | 21487 ft | 375 kts | 245° |
| 2026-05-07 07:57 | 27.88975 | 102.49573 | 20802 ft | 371 kts | 245° |
| 2026-05-07 07:57 | 27.87820 | 102.47020 | 20277 ft | 369 kts | 244° |
| 2026-05-07 07:58 | 27.86655 | 102.44443 | 19738 ft | 367 kts | 244° |
| 2026-05-07 07:58 | 27.85491 | 102.41874 | 19180 ft | 366 kts | 244° |
| 2026-05-07 07:58 | 27.84356 | 102.39365 | 18787 ft | 358 kts | 244° |
| 2026-05-07 07:58 | 27.83607 | 102.37712 | 18681 ft | 349 kts | 244° |
| 2026-05-07 07:59 | 27.82528 | 102.35333 | 18522 ft | 335 kts | 244° |
| 2026-05-07 07:59 | 27.81145 | 102.32279 | 18311 ft | 319 kts | 244° |
| 2026-05-07 07:59 | 27.80483 | 102.30816 | 18226 ft | 310 kts | 244° |
| 2026-05-07 07:59 | 27.79509 | 102.28670 | 18103 ft | 298 kts | 244° |
| 2026-05-07 08:00 | 27.78281 | 102.25960 | 17898 ft | 284 kts | 244° |
| 2026-05-07 08:00 | 27.77398 | 102.24013 | 17768 ft | 273 kts | 244° |
| 2026-05-07 08:00 | 27.76551 | 102.22147 | 17670 ft | 261 kts | 244° |
| 2026-05-07 08:00 | 27.75734 | 102.20348 | 17631 ft | 257 kts | 244° |
| 2026-05-07 08:01 | 27.74923 | 102.18562 | 17571 ft | 257 kts | 244° |
| 2026-05-07 08:01 | 27.74100 | 102.16752 | 17412 ft | 257 kts | 244° |
| 2026-05-07 08:01 | 27.73267 | 102.14951 | 17029 ft | 262 kts | 243° |
| 2026-05-07 08:01 | 27.72408 | 102.13129 | 16557 ft | 267 kts | 243° |
| 2026-05-07 08:02 | 27.71527 | 102.11266 | 16099 ft | 270 kts | 242° |
| 2026-05-07 08:02 | 27.70948 | 102.10040 | 15825 ft | 272 kts | 242° |
| 2026-05-07 08:02 | 27.69747 | 102.07499 | 15244 ft | 275 kts | 242° |
| 2026-05-07 08:02 | 27.69143 | 102.06222 | 14942 ft | 277 kts | 242° |
| 2026-05-07 08:03 | 27.67751 | 102.03795 | 14299 ft | 282 kts | 221° |
| 2026-05-07 08:03 | 27.65998 | 102.02843 | 13860 ft | 284 kts | 189° |
| 2026-05-07 08:03 | 27.64046 | 102.03120 | 13439 ft | 288 kts | 156° |
| 2026-05-07 08:03 | 27.62520 | 102.04536 | 13035 ft | 292 kts | 125° |
| 2026-05-07 08:04 | 27.61868 | 102.06691 | 12612 ft | 297 kts | 93° |
| 2026-05-07 08:04 | 27.62322 | 102.08953 | 12169 ft | 300 kts | 61° |
| 2026-05-07 08:04 | 27.63759 | 102.10627 | 11790 ft | 298 kts | 30° |
| 2026-05-07 08:04 | 27.65661 | 102.11431 | 11489 ft | 293 kts | 17° |
| 2026-05-07 08:05 | 27.67570 | 102.12249 | 11123 ft | 291 kts | 25° |
| 2026-05-07 08:05 | 27.69363 | 102.13299 | 10718 ft | 290 kts | 30° |
| 2026-05-07 08:05 | 27.71122 | 102.14468 | 10088 ft | 298 kts | 32° |
| 2026-05-07 08:05 | 27.72899 | 102.15738 | 9443 ft | 304 kts | 33° |
| 2026-05-07 08:06 | 27.74652 | 102.17022 | 9020 ft | 302 kts | 33° |
| 2026-05-07 08:06 | 27.76404 | 102.18308 | 8591 ft | 290 kts | 33° |
| 2026-05-07 08:06 | 27.78150 | 102.19297 | 8099 ft | 280 kts | 12° |
| 2026-05-07 08:06 | 27.80035 | 102.19360 | 7892 ft | 261 kts | 356° |
| 2026-05-07 08:07 | 27.81802 | 102.19166 | 7867 ft | 244 kts | 356° |
| 2026-05-07 08:07 | 27.83431 | 102.19020 | 7739 ft | 225 kts | 358° |
| 2026-05-07 08:07 | 27.84940 | 102.18943 | 7527 ft | 208 kts | 359° |
| 2026-05-07 08:07 | 27.86339 | 102.18893 | 7214 ft | 190 kts | 360° |
| 2026-05-07 08:08 | 27.87628 | 102.18851 | 6997 ft | 180 kts | 359° |
| 2026-05-07 08:08 | 27.88846 | 102.18808 | 6736 ft | 166 kts | 359° |
| 2026-05-07 08:08 | 27.89946 | 102.18767 | 6504 ft | 153 kts | 359° |
| 2026-05-07 08:08 | 27.91018 | 102.18726 | 6328 ft | 152 kts | 359° |
| 2026-05-07 08:09 | 27.92060 | 102.18687 | 6155 ft | 151 kts | 359° |
| 2026-05-07 08:09 | 27.93128 | 102.18647 | 5974 ft | 151 kts | 359° |
| 2026-05-07 08:09 | 27.94167 | 102.18608 | 5783 ft | 150 kts | 360° |
| 2026-05-07 08:09 | 27.95221 | 102.18568 | 5589 ft | 150 kts | 359° |
| 2026-05-07 08:10 | 27.96266 | 102.18530 | 5402 ft | 150 kts | 359° |
| 2026-05-07 08:10 | 27.97313 | 102.18489 | 5208 ft | 148 kts | 359° |
| 2026-05-07 08:10 | 27.97970 | 102.18465 | 5170 ft | 135 kts | 359° |
| 2026-05-07 08:10 | 27.98985 | 102.18430 | 5174 ft | 76 kts | 358° |
| 2026-05-07 08:11 | 27.99355 | 102.18416 | 5186 ft | 38 kts | 359° |
| 2026-05-07 08:11 | 27.99602 | 102.18407 | 5194 ft | 33 kts | 358° |
| 2026-05-07 08:11 | 27.99765 | 102.18401 | 5200 ft | 13 kts | 358° |
| 2026-05-07 08:11 | 27.99819 | 102.18414 | 5202 ft | 11 kts | 40° |
| 2026-05-07 08:12 | 27.99835 | 102.18493 | 5203 ft | 9 kts | 95° |
| 2026-05-07 08:12 | 27.99750 | 102.18534 | 5201 ft | 13 kts | 177° |
| 2026-05-07 08:12 | 27.99636 | 102.18539 | 5197 ft | 19 kts | 178° |
| 2026-05-07 08:12 | 27.99540 | 102.18542 | 5193 ft | 21 kts | 178° |
| 2026-05-07 08:13 | 27.99374 | 102.18554 | 5187 ft | 12 kts | 157° |
| 2026-05-07 08:13 | 27.99349 | 102.18620 | 5190 ft | 0 kts | 89° |